createdAt,value
2022-12-23T00:01:38.698Z,22.07
2022-12-23T00:04:05.440Z,23.20
2022-12-23T00:06:31.948Z,25.53
2022-12-23T00:08:59.098Z,21.17
2022-12-23T00:11:26.400Z,21.00
2022-12-23T00:14:16.530Z,22.00
2022-12-23T00:16:47.333Z,21.23
2022-12-23T00:19:13.835Z,23.93
2022-12-23T00:21:40.430Z,26.97
2022-12-23T00:24:07.915Z,25.57
2022-12-23T00:26:34.413Z,25.73
2022-12-23T00:29:00.929Z,27.13
2022-12-23T00:31:27.443Z,25.93
2022-12-23T00:33:54.489Z,23.77
2022-12-23T00:36:22.715Z,23.73
2022-12-23T00:39:07.996Z,23.53
2022-12-23T00:41:53.171Z,24.93
2022-12-23T00:44:19.814Z,24.23
2022-12-23T00:46:46.332Z,25.37
2022-12-23T00:49:31.711Z,27.77
2022-12-23T00:51:58.442Z,24.23
2022-12-23T00:54:25.011Z,25.70
2022-12-23T00:56:51.494Z,31.13
2022-12-23T00:59:18.277Z,27.90
2022-12-23T01:02:03.581Z,24.77
2022-12-23T01:04:48.959Z,30.90
2022-12-23T01:07:15.578Z,27.17
2022-12-23T01:09:42.077Z,27.43
2022-12-23T01:12:08.641Z,29.47
2022-12-23T01:14:35.158Z,28.57
2022-12-23T01:17:01.779Z,28.50
2022-12-23T01:19:28.509Z,26.40
2022-12-23T01:21:55.000Z,30.80
2022-12-23T01:24:21.515Z,25.87
2022-12-23T01:26:48.069Z,31.77
2022-12-23T01:29:14.514Z,31.03
2022-12-23T01:31:41.119Z,29.27
2022-12-23T01:34:07.689Z,28.40
2022-12-23T01:36:34.163Z,25.33
2022-12-23T01:39:00.721Z,34.00
2022-12-23T01:41:46.595Z,28.87
2022-12-23T01:44:32.815Z,29.87
2022-12-23T01:46:59.271Z,28.10
2022-12-23T01:49:25.766Z,31.87
2022-12-23T01:51:52.215Z,33.37
2022-12-23T01:54:18.746Z,35.90
2022-12-23T01:56:45.197Z,35.90
2022-12-23T01:59:32.702Z,42.83
2022-12-23T02:02:18.084Z,30.37
2022-12-23T02:04:44.781Z,37.97
2022-12-23T02:07:30.029Z,37.90
2022-12-23T02:09:56.554Z,37.00
2022-12-23T02:12:24.090Z,37.93
2022-12-23T02:15:12.328Z,38.90
2022-12-23T02:17:45.130Z,40.13
2022-12-23T02:20:30.100Z,42.80
2022-12-23T02:22:59.595Z,44.20
2022-12-23T02:25:44.165Z,41.17
2022-12-23T02:28:33.610Z,40.63
2022-12-23T02:31:00.182Z,44.83
2022-12-23T02:33:36.120Z,49.00
2022-12-23T02:36:21.125Z,44.53
2022-12-23T02:38:47.618Z,42.20
2022-12-23T02:41:23.252Z,47.43
2022-12-23T02:44:22.364Z,39.43
2022-12-23T02:46:52.493Z,39.87
2022-12-23T02:49:21.057Z,41.70
2022-12-23T02:51:48.990Z,39.23
2022-12-23T02:54:16.947Z,42.37
2022-12-23T02:56:43.589Z,39.67
2022-12-23T02:59:11.400Z,38.77
2022-12-23T03:01:37.948Z,36.40
2022-12-23T03:04:06.771Z,35.33
2022-12-23T03:06:35.023Z,31.20
2022-12-23T03:09:01.558Z,29.27
2022-12-23T03:11:40.184Z,30.73
2022-12-23T03:14:09.579Z,32.73
2022-12-23T03:16:42.102Z,30.50
2022-12-23T03:19:14.665Z,29.77
2022-12-23T03:21:43.244Z,27.63
2022-12-23T03:24:31.937Z,29.10
2022-12-23T03:27:03.915Z,30.23
2022-12-23T03:29:37.009Z,30.50
2022-12-23T03:32:03.525Z,27.80
2022-12-23T03:34:31.081Z,27.03
2022-12-23T03:36:58.174Z,28.53
2022-12-23T03:39:26.761Z,26.00
2022-12-23T03:41:55.222Z,26.10
2022-12-23T03:44:23.838Z,28.00
2022-12-23T03:46:55.470Z,25.53
2022-12-23T03:49:27.635Z,26.63
2022-12-23T03:51:56.247Z,29.30
2022-12-23T03:54:33.292Z,26.47
2022-12-23T03:57:01.641Z,29.73
2022-12-23T03:59:28.765Z,27.53
2022-12-23T04:02:13.747Z,29.03
2022-12-23T04:04:55.840Z,28.67
2022-12-23T04:07:23.894Z,30.57
2022-12-23T04:09:51.257Z,30.10
2022-12-23T04:12:17.723Z,33.40
2022-12-23T04:14:47.620Z,31.53
2022-12-23T04:17:14.110Z,31.83
2022-12-23T04:19:40.579Z,32.97
2022-12-23T04:22:07.079Z,32.63
2022-12-23T04:24:33.549Z,31.47
2022-12-23T04:27:00.024Z,30.30
2022-12-23T04:29:26.512Z,26.63
2022-12-23T04:31:53.057Z,27.03
2022-12-23T04:34:19.564Z,23.33
2022-12-23T04:36:46.048Z,24.50
2022-12-23T04:39:12.606Z,25.07
2022-12-23T04:41:39.162Z,24.93
2022-12-23T04:44:05.732Z,21.87
2022-12-23T04:46:32.287Z,25.53
2022-12-23T04:48:58.836Z,22.13
2022-12-23T04:51:25.285Z,22.43
2022-12-23T04:53:51.791Z,23.83
2022-12-23T04:56:18.260Z,21.33
2022-12-23T04:58:44.735Z,20.60
2022-12-23T05:01:11.536Z,21.13
2022-12-23T05:03:38.395Z,17.60
2022-12-23T05:06:05.092Z,19.43
2022-12-23T05:08:31.639Z,23.27
2022-12-23T05:10:58.166Z,18.50
2022-12-23T05:13:24.685Z,20.00
2022-12-23T05:15:51.844Z,18.63
2022-12-23T05:18:18.368Z,20.70
2022-12-23T05:20:44.841Z,19.27
2022-12-23T05:23:11.306Z,16.90
2022-12-23T05:25:37.951Z,17.27
2022-12-23T05:28:04.700Z,22.23
2022-12-23T05:30:31.238Z,22.70
2022-12-23T05:32:57.882Z,20.77
2022-12-23T05:35:24.609Z,21.23
2022-12-23T05:37:51.234Z,20.53
2022-12-23T05:40:23.296Z,19.57
2022-12-23T05:42:52.258Z,19.27
2022-12-23T05:45:18.705Z,21.40
2022-12-23T05:47:45.188Z,24.90
2022-12-23T05:50:11.758Z,23.83
2022-12-23T05:52:38.242Z,27.00
2022-12-23T05:55:05.058Z,21.20
2022-12-23T05:57:32.289Z,26.47
2022-12-23T05:59:58.916Z,25.30
2022-12-23T06:02:25.458Z,23.10
2022-12-23T06:04:52.061Z,23.27
2022-12-23T06:07:18.558Z,21.47
2022-12-23T06:09:45.067Z,20.97
2022-12-23T06:12:11.560Z,22.80
2022-12-23T06:14:38.096Z,20.87
2022-12-23T06:17:04.692Z,15.93
2022-12-23T06:19:31.210Z,19.87
2022-12-23T06:21:57.704Z,18.67
2022-12-23T06:24:24.244Z,19.10
2022-12-23T06:26:56.505Z,18.93
2022-12-23T06:29:23.636Z,15.13
2022-12-23T06:31:50.133Z,19.73
2022-12-23T06:34:16.709Z,15.07
2022-12-23T06:36:43.216Z,14.37
2022-12-23T06:39:10.175Z,14.93
2022-12-23T06:41:36.692Z,16.90
2022-12-23T06:44:03.283Z,15.83
2022-12-23T06:46:30.006Z,22.10
2022-12-23T06:48:56.526Z,20.43
2022-12-23T06:51:23.060Z,19.00
2022-12-23T06:53:49.546Z,19.07
2022-12-23T06:56:16.049Z,20.67
2022-12-23T06:58:42.532Z,17.87
2022-12-23T07:01:10.258Z,18.07
2022-12-23T07:03:36.941Z,19.70
2022-12-23T07:06:03.690Z,18.10
2022-12-23T07:08:30.171Z,22.20
2022-12-23T07:10:59.997Z,19.27
2022-12-23T07:13:26.594Z,18.57
2022-12-23T07:15:53.223Z,16.47
2022-12-23T07:18:19.764Z,16.93
2022-12-23T07:20:46.310Z,17.43
2022-12-23T07:23:12.783Z,18.00
2022-12-23T07:25:39.264Z,17.60
2022-12-23T07:28:05.769Z,16.50
2022-12-23T07:30:32.252Z,17.97
2022-12-23T07:32:58.764Z,17.50
2022-12-23T07:35:25.312Z,19.87
2022-12-23T07:37:55.597Z,22.03
2022-12-23T07:40:22.960Z,19.90
2022-12-23T07:42:50.063Z,21.80
2022-12-23T07:45:16.732Z,24.40
2022-12-23T07:47:43.258Z,22.70
2022-12-23T07:50:10.043Z,24.40
2022-12-23T07:52:36.530Z,24.07
2022-12-23T07:55:03.064Z,23.53
2022-12-23T07:57:29.669Z,24.53
2022-12-23T07:59:56.149Z,23.57
2022-12-23T08:02:25.522Z,26.83
2022-12-23T08:04:52.263Z,24.53
2022-12-23T08:07:18.807Z,24.83
2022-12-23T08:09:45.306Z,22.73
2022-12-23T08:12:12.163Z,23.30
2022-12-23T08:14:38.647Z,23.00
2022-12-23T08:17:05.361Z,23.13
2022-12-23T08:19:31.881Z,23.10
2022-12-23T08:21:58.345Z,33.13
2022-12-23T08:24:24.876Z,37.37
2022-12-23T08:26:51.358Z,43.50
2022-12-23T08:29:17.843Z,37.73
2022-12-23T08:31:44.590Z,38.03
2022-12-23T08:34:11.376Z,31.50
2022-12-23T08:36:39.984Z,23.80
2022-12-23T08:39:07.277Z,20.63
2022-12-23T08:41:35.902Z,20.87
2022-12-23T08:44:02.425Z,17.67
2022-12-23T08:46:28.971Z,20.87
2022-12-23T08:48:55.746Z,20.70
2022-12-23T08:51:22.695Z,17.27
2022-12-23T08:53:50.205Z,18.07
2022-12-23T08:56:22.680Z,23.47
2022-12-23T08:58:50.314Z,18.43
2022-12-23T09:01:17.342Z,17.73
2022-12-23T09:03:43.999Z,19.20
2022-12-23T09:06:11.372Z,22.23
2022-12-23T09:08:37.863Z,19.87
2022-12-23T09:11:04.405Z,25.80
2022-12-23T09:13:35.211Z,23.67
2022-12-23T09:16:02.577Z,24.03
2022-12-23T09:18:29.092Z,22.27
2022-12-23T09:20:59.272Z,19.83
2022-12-23T09:23:25.768Z,21.73
2022-12-23T09:25:52.229Z,22.87
2022-12-23T09:28:18.734Z,25.43
2022-12-23T09:30:45.283Z,27.43
2022-12-23T09:33:11.818Z,27.90
2022-12-23T09:35:38.314Z,27.17
2022-12-23T09:38:04.825Z,29.67
2022-12-23T09:40:32.529Z,22.37
2022-12-23T09:42:59.001Z,22.77
2022-12-23T09:45:43.890Z,23.33
2022-12-23T09:48:12.067Z,22.63
2022-12-23T09:50:38.536Z,24.20
2022-12-23T09:53:08.845Z,23.43
2022-12-23T09:55:47.239Z,22.77
2022-12-23T09:58:29.663Z,23.00
2022-12-23T10:00:59.178Z,20.53
2022-12-23T10:03:26.710Z,19.83
2022-12-23T10:06:03.411Z,23.07
2022-12-23T10:08:39.990Z,21.80
2022-12-23T10:11:15.591Z,22.47
2022-12-23T10:13:49.122Z,17.07
2022-12-23T10:16:19.661Z,20.13
2022-12-23T10:18:46.351Z,19.73
2022-12-23T10:21:25.201Z,15.63
2022-12-23T10:23:52.490Z,13.60
2022-12-23T10:26:23.839Z,13.53
2022-12-23T10:28:51.112Z,13.43
2022-12-23T10:34:07.882Z,12.27
2022-12-23T10:36:37.699Z,9.63
2022-12-23T10:39:04.216Z,12.73
2022-12-23T10:41:57.086Z,11.97
2022-12-23T10:44:36.086Z,10.57
2022-12-23T10:47:02.612Z,9.70
2022-12-23T10:49:31.956Z,12.23
2022-12-23T10:51:59.380Z,13.93
2022-12-23T10:54:32.888Z,16.27
2022-12-23T10:56:59.476Z,16.37
2022-12-23T10:59:26.873Z,11.90
2022-12-23T11:01:56.253Z,11.63
2022-12-23T11:04:25.914Z,16.40
2022-12-23T11:07:10.835Z,20.17
2022-12-23T11:09:40.096Z,16.53
2022-12-23T11:12:08.502Z,20.87
2022-12-23T11:14:42.493Z,19.87
2022-12-23T11:17:19.644Z,16.87
2022-12-23T11:19:46.123Z,16.13
2022-12-23T11:22:22.944Z,16.87
2022-12-23T11:24:49.567Z,19.60
2022-12-23T11:27:19.079Z,14.67
2022-12-23T11:29:49.663Z,16.13
2022-12-23T11:32:25.768Z,17.03
2022-12-23T11:34:52.504Z,19.70
2022-12-23T11:37:38.106Z,20.03
2022-12-23T11:40:05.098Z,18.87
2022-12-23T11:42:31.679Z,25.60
2022-12-23T11:44:58.590Z,22.23
2022-12-23T11:47:26.505Z,19.20
2022-12-23T11:49:54.066Z,17.97
2022-12-23T11:52:21.096Z,17.87
2022-12-23T11:54:54.558Z,19.67
2022-12-23T11:57:27.391Z,19.40
2022-12-23T11:59:57.566Z,23.03
2022-12-23T12:02:29.186Z,24.93
2022-12-23T12:05:14.441Z,22.50
2022-12-23T12:07:41.859Z,24.37
2022-12-23T12:10:09.857Z,26.80
2022-12-23T12:12:36.339Z,22.80
2022-12-23T12:15:03.815Z,21.90
2022-12-23T12:17:32.826Z,23.40
2022-12-23T12:20:02.432Z,17.23
2022-12-23T12:22:41.881Z,17.43
2022-12-23T12:25:14.456Z,17.20
2022-12-23T12:27:40.918Z,16.63
2022-12-23T12:30:09.034Z,12.33
2022-12-23T12:32:56.008Z,12.93
2022-12-23T12:35:25.282Z,12.17
2022-12-23T12:37:53.738Z,12.20
2022-12-23T12:40:20.184Z,11.87
2022-12-23T12:42:49.271Z,12.57
2022-12-23T12:45:45.199Z,9.83
2022-12-23T12:48:24.255Z,12.17
2022-12-23T12:51:00.125Z,8.90
2022-12-23T12:53:26.998Z,10.80
2022-12-23T12:55:56.105Z,12.37
2022-12-23T12:58:23.423Z,14.30
2022-12-23T13:01:10.180Z,9.87
2022-12-23T13:03:55.443Z,10.40
2022-12-23T13:06:37.298Z,12.30
2022-12-23T13:09:10.215Z,9.53
2022-12-23T13:12:03.020Z,10.67
2022-12-23T13:14:45.945Z,12.27
2022-12-23T13:17:35.728Z,10.63
2022-12-23T13:20:10.398Z,11.17
2022-12-23T13:22:36.886Z,11.80
2022-12-23T13:25:04.299Z,10.37
2022-12-23T13:27:33.955Z,8.20
2022-12-23T13:30:05.069Z,12.90
2022-12-23T13:32:40.824Z,9.13
2022-12-23T13:35:26.014Z,8.60
2022-12-23T13:37:52.628Z,12.07
2022-12-23T13:40:34.422Z,11.33
2022-12-23T13:43:03.412Z,9.33
2022-12-23T13:45:33.491Z,10.40
2022-12-23T13:48:09.032Z,12.17
2022-12-23T13:50:38.654Z,10.03
2022-12-23T13:53:05.141Z,11.70
2022-12-23T13:55:37.745Z,10.67
2022-12-23T13:58:17.319Z,9.27
2022-12-23T14:00:43.850Z,7.90
2022-12-23T14:03:12.512Z,9.43
2022-12-23T14:05:41.105Z,15.43
2022-12-23T14:08:20.085Z,14.50
2022-12-23T14:11:03.694Z,16.53
2022-12-23T14:13:43.569Z,17.63
2022-12-23T14:16:13.405Z,13.70
2022-12-23T14:18:46.160Z,14.27
2022-12-23T14:21:15.994Z,13.80
2022-12-23T14:24:04.218Z,17.23
2022-12-23T14:26:36.985Z,16.90
2022-12-23T14:29:12.749Z,19.40
2022-12-23T14:31:43.074Z,17.57
2022-12-23T14:34:18.774Z,18.50
2022-12-23T14:37:05.643Z,16.13
2022-12-23T14:39:32.721Z,14.60
2022-12-23T14:42:05.454Z,16.03
2022-12-23T14:44:37.187Z,14.43
2022-12-23T14:47:04.440Z,17.63
2022-12-23T14:49:41.515Z,19.20
2022-12-23T14:52:26.934Z,16.77
2022-12-23T14:55:21.024Z,16.27
2022-12-23T14:57:40.002Z,16.70
2022-12-23T15:00:06.938Z,16.67
2022-12-23T15:02:34.345Z,15.50
2022-12-23T15:05:00.857Z,15.50
2022-12-23T15:07:42.887Z,17.60
2022-12-23T15:10:20.423Z,18.30
2022-12-23T15:12:47.764Z,16.63
2022-12-23T15:15:14.301Z,20.33
2022-12-23T15:17:40.830Z,22.53
2022-12-23T15:20:11.203Z,27.67
2022-12-23T15:22:38.485Z,25.63
2022-12-23T15:25:05.442Z,26.37
2022-12-23T15:27:32.986Z,26.17
2022-12-23T15:29:59.554Z,29.87
2022-12-23T15:32:26.223Z,25.47
2022-12-23T15:34:52.891Z,27.67
2022-12-23T15:37:22.889Z,27.60
2022-12-23T15:39:54.139Z,24.40
2022-12-23T15:42:28.461Z,24.67
2022-12-23T15:44:55.109Z,26.97
2022-12-23T15:47:21.646Z,23.07
2022-12-23T15:49:48.269Z,25.37
2022-12-23T15:52:20.164Z,27.53
2022-12-23T15:55:04.390Z,24.87
2022-12-23T15:57:31.026Z,24.87
2022-12-23T15:59:57.776Z,22.80
2022-12-23T16:02:58.845Z,22.37
2022-12-23T16:05:10.871Z,25.83
2022-12-23T16:07:38.333Z,27.37
2022-12-23T16:10:10.421Z,22.90
2022-12-23T16:12:37.148Z,25.33
2022-12-23T16:15:18.986Z,23.03
2022-12-23T16:17:45.468Z,27.60
2022-12-23T16:20:21.438Z,25.73
2022-12-23T16:22:50.499Z,23.10
2022-12-23T16:25:17.028Z,26.13
2022-12-23T16:27:43.658Z,24.90
2022-12-23T16:30:20.292Z,21.37
2022-12-23T16:33:00.241Z,21.87
2022-12-23T16:35:31.711Z,26.57
2022-12-23T16:37:59.668Z,20.07
2022-12-23T16:40:26.213Z,23.43
2022-12-23T16:42:52.759Z,23.67
2022-12-23T16:45:19.318Z,21.30
2022-12-23T16:47:45.885Z,22.63
2022-12-23T16:50:12.517Z,25.87
2022-12-23T16:52:38.994Z,26.50
2022-12-23T16:55:12.143Z,22.97
2022-12-23T16:57:38.811Z,23.17
2022-12-23T17:00:05.634Z,25.57
2022-12-23T17:02:34.564Z,27.00
2022-12-23T17:05:01.155Z,29.97
2022-12-23T17:07:27.717Z,23.13
2022-12-23T17:09:54.281Z,22.13
2022-12-23T17:12:20.783Z,23.33
2022-12-23T17:14:47.312Z,24.73
2022-12-23T17:17:16.851Z,24.97
2022-12-23T17:19:43.439Z,23.50
2022-12-23T17:22:11.271Z,27.07
2022-12-23T17:24:37.820Z,24.50
2022-12-23T17:27:14.559Z,25.87
2022-12-23T17:29:41.058Z,25.27
2022-12-23T17:32:10.395Z,27.10
2022-12-23T17:34:36.965Z,26.80
2022-12-23T17:37:04.448Z,30.07
2022-12-23T17:39:31.051Z,30.77
2022-12-23T17:41:57.527Z,31.30
2022-12-23T17:44:24.165Z,30.00
2022-12-23T17:46:50.640Z,27.17
2022-12-23T17:49:17.173Z,30.10
2022-12-23T17:51:43.789Z,26.30
2022-12-23T17:54:23.369Z,23.53
2022-12-23T17:56:50.108Z,27.77
2022-12-23T17:59:16.628Z,28.20
2022-12-23T18:01:43.262Z,28.47
2022-12-23T18:04:09.798Z,28.10
2022-12-23T18:06:36.360Z,24.03
2022-12-23T18:09:02.845Z,29.90
2022-12-23T18:11:35.559Z,29.50
2022-12-23T18:14:02.197Z,30.90
2022-12-23T18:16:28.726Z,30.27
2022-12-23T18:18:55.279Z,27.90
2022-12-23T18:21:26.004Z,31.63
2022-12-23T18:23:52.847Z,30.10
2022-12-23T18:26:19.344Z,32.63
2022-12-23T18:28:45.891Z,33.37
2022-12-23T18:31:16.766Z,34.70
2022-12-23T18:33:43.357Z,33.33
2022-12-23T18:36:30.717Z,31.80
2022-12-23T18:38:57.446Z,33.70
2022-12-23T18:41:24.137Z,36.60
2022-12-23T18:43:50.841Z,32.40
2022-12-23T18:46:17.608Z,37.93
2022-12-23T18:48:44.185Z,34.37
2022-12-23T18:51:13.026Z,30.67
2022-12-23T18:53:39.669Z,31.27
2022-12-23T18:56:06.255Z,31.83
2022-12-23T18:58:32.903Z,33.97
2022-12-23T19:00:59.433Z,36.37
2022-12-23T19:03:26.893Z,31.70
2022-12-23T19:05:53.542Z,30.70
2022-12-23T19:08:26.227Z,32.57
2022-12-23T19:10:53.492Z,29.10
2022-12-23T19:13:20.087Z,33.70
2022-12-23T19:15:46.776Z,32.67
2022-12-23T19:18:17.137Z,30.17
2022-12-23T19:20:44.092Z,33.93
2022-12-23T19:23:10.789Z,27.80
2022-12-23T19:25:37.521Z,24.83
2022-12-23T19:28:04.069Z,30.30
2022-12-23T19:30:30.627Z,27.03
2022-12-23T19:32:57.125Z,28.93
2022-12-23T19:35:23.987Z,25.83
2022-12-23T19:37:50.564Z,26.27
2022-12-23T19:40:17.212Z,26.17
2022-12-23T19:42:43.811Z,24.00
2022-12-23T19:45:10.428Z,24.77
2022-12-23T19:47:37.229Z,22.83
2022-12-23T19:50:04.259Z,26.83
2022-12-23T19:52:30.787Z,25.93
2022-12-23T19:54:57.302Z,29.63
2022-12-23T19:57:24.191Z,29.73
2022-12-23T19:59:50.731Z,29.60
2022-12-23T20:02:17.605Z,25.77
2022-12-23T20:04:44.225Z,27.73
2022-12-23T20:07:10.727Z,29.40
2022-12-23T20:09:37.370Z,28.53
2022-12-23T20:12:04.019Z,33.10
2022-12-23T20:14:33.779Z,30.37
2022-12-23T20:17:00.878Z,30.50
2022-12-23T20:19:27.831Z,25.83
2022-12-23T20:21:54.358Z,26.90
2022-12-23T20:24:20.902Z,29.00
2022-12-23T20:26:47.737Z,25.50
2022-12-23T20:29:14.517Z,25.37
2022-12-23T20:31:41.761Z,24.10
2022-12-23T20:34:09.257Z,23.87
2022-12-23T20:36:35.906Z,23.03
2022-12-23T20:39:03.579Z,23.53
2022-12-23T20:41:31.347Z,25.77
2022-12-23T20:44:32.422Z,24.37
2022-12-23T20:46:44.600Z,26.93
2022-12-23T20:49:11.255Z,25.97
2022-12-23T20:51:37.902Z,25.83
2022-12-23T20:54:04.535Z,25.80
2022-12-23T20:56:31.895Z,30.00
2022-12-23T20:58:59.448Z,25.50
2022-12-23T21:01:29.323Z,22.87
2022-12-23T21:03:56.472Z,19.23
2022-12-23T21:06:23.217Z,20.50
2022-12-23T21:08:49.801Z,24.57
2022-12-23T21:11:16.477Z,23.63
2022-12-23T21:13:44.050Z,25.43
2022-12-23T21:16:11.146Z,25.63
2022-12-23T21:18:44.358Z,24.27
2022-12-23T21:21:11.081Z,22.43
2022-12-23T21:23:38.770Z,22.17
2022-12-23T21:26:06.692Z,23.73
2022-12-23T21:28:34.029Z,22.27
2022-12-23T21:31:00.564Z,23.33
2022-12-23T21:33:27.139Z,23.80
2022-12-23T21:35:54.252Z,21.00
2022-12-23T21:38:20.830Z,19.83
2022-12-23T21:40:47.610Z,20.33
2022-12-23T21:43:15.347Z,20.37
2022-12-23T21:45:41.867Z,17.33
2022-12-23T21:48:08.375Z,18.37
2022-12-23T21:50:34.924Z,18.23
2022-12-23T21:53:01.458Z,16.03
2022-12-23T21:55:28.018Z,14.33
2022-12-23T21:57:54.590Z,18.77
2022-12-23T22:00:21.127Z,16.70
2022-12-23T22:02:47.641Z,17.63
2022-12-23T22:05:14.222Z,17.77
2022-12-23T22:07:40.864Z,16.63
2022-12-23T22:10:07.776Z,16.50
2022-12-23T22:12:34.325Z,15.33
2022-12-23T22:15:03.849Z,15.63
2022-12-23T22:17:34.375Z,18.13
2022-12-23T22:20:00.896Z,19.47
2022-12-23T22:22:27.454Z,16.17
2022-12-23T22:24:54.329Z,16.13
2022-12-23T22:27:20.844Z,13.40
2022-12-23T22:29:47.383Z,16.03
2022-12-23T22:32:13.890Z,16.67
2022-12-23T22:34:40.629Z,15.97
2022-12-23T22:37:07.143Z,19.43
2022-12-23T22:39:33.657Z,18.47
2022-12-23T22:42:00.173Z,19.40
2022-12-23T22:44:26.705Z,16.60
2022-12-23T22:46:53.289Z,18.27
2022-12-23T22:49:19.990Z,18.53
2022-12-23T22:51:46.557Z,21.60
2022-12-23T22:54:13.114Z,16.73
2022-12-23T22:56:39.768Z,24.30
2022-12-23T22:59:06.340Z,16.57
2022-12-23T23:01:33.524Z,21.50
2022-12-23T23:04:00.401Z,23.90
2022-12-23T23:06:28.129Z,23.70
2022-12-23T23:08:54.792Z,20.87
2022-12-23T23:11:21.402Z,21.13
2022-12-23T23:13:47.915Z,24.97
2022-12-23T23:16:14.579Z,20.10
2022-12-23T23:18:41.282Z,22.90
2022-12-23T23:21:08.138Z,24.67
2022-12-23T23:23:34.724Z,23.20
2022-12-23T23:26:01.418Z,21.53
2022-12-23T23:28:27.957Z,22.23
2022-12-23T23:31:16.697Z,21.80
2022-12-23T23:33:40.968Z,20.93
2022-12-23T23:36:07.787Z,24.87
2022-12-23T23:38:35.337Z,22.70
2022-12-23T23:41:01.995Z,21.93
2022-12-23T23:43:28.496Z,20.80
2022-12-23T23:45:54.989Z,18.67
2022-12-23T23:48:21.565Z,18.50
2022-12-23T23:50:48.167Z,26.10
2022-12-23T23:53:15.127Z,24.40
2022-12-23T23:55:41.629Z,27.70
2022-12-23T23:58:08.242Z,23.93
